sensor_id;sensor_type;location;lat;lon;timestamp;temperature;humidity
37984;DHT22;64625;50.882;4.376;2023-02-04T00:00:46;10.70;99.90
37984;DHT22;64625;50.882;4.376;2023-02-04T00:03:13;10.70;99.90
37984;DHT22;64625;50.882;4.376;2023-02-04T00:05:39;10.70;99.90
37984;DHT22;64625;50.882;4.376;2023-02-04T00:08:05;10.70;99.90
37984;DHT22;64625;50.882;4.376;2023-02-04T00:10:31;10.70;99.90
37984;DHT22;64625;50.882;4.376;2023-02-04T00:12:57;10.70;99.90
37984;DHT22;64625;50.882;4.376;2023-02-04T00:15:23;10.70;99.90
37984;DHT22;64625;50.882;4.376;2023-02-04T00:17:49;10.60;99.90
37984;DHT22;64625;50.882;4.376;2023-02-04T00:20:14;10.70;99.90
37984;DHT22;64625;50.882;4.376;2023-02-04T00:22:40;10.70;99.90
37984;DHT22;64625;50.882;4.376;2023-02-04T00:25:06;10.70;99.90
37984;DHT22;64625;50.882;4.376;2023-02-04T00:27:32;10.70;99.90
37984;DHT22;64625;50.882;4.376;2023-02-04T00:29:58;10.70;99.90
37984;DHT22;64625;50.882;4.376;2023-02-04T00:32:24;10.60;99.90
37984;DHT22;64625;50.882;4.376;2023-02-04T00:34:50;10.60;99.90
37984;DHT22;64625;50.882;4.376;2023-02-04T00:37:15;10.60;99.90
37984;DHT22;64625;50.882;4.376;2023-02-04T00:39:41;10.60;99.90
37984;DHT22;64625;50.882;4.376;2023-02-04T00:42:07;10.60;99.90
37984;DHT22;64625;50.882;4.376;2023-02-04T00:44:33;10.60;99.90
37984;DHT22;64625;50.882;4.376;2023-02-04T00:47:01;10.60;99.90
37984;DHT22;64625;50.882;4.376;2023-02-04T00:49:27;10.60;99.90
37984;DHT22;64625;50.882;4.376;2023-02-04T00:51:53;10.60;99.90
37984;DHT22;64625;50.882;4.376;2023-02-04T00:54:19;10.60;99.90
37984;DHT22;64625;50.882;4.376;2023-02-04T00:56:44;10.60;99.90
37984;DHT22;64625;50.882;4.376;2023-02-04T00:59:10;10.60;99.90
37984;DHT22;64625;50.882;4.376;2023-02-04T01:01:36;10.60;99.90
37984;DHT22;64625;50.882;4.376;2023-02-04T01:04:02;10.60;99.90
37984;DHT22;64625;50.882;4.376;2023-02-04T01:06:28;10.60;99.90
37984;DHT22;64625;50.882;4.376;2023-02-04T01:08:53;10.60;99.90
37984;DHT22;64625;50.882;4.376;2023-02-04T01:11:19;10.60;99.90
37984;DHT22;64625;50.882;4.376;2023-02-04T01:13:45;10.60;99.90
37984;DHT22;64625;50.882;4.376;2023-02-04T01:16:12;10.60;99.90
37984;DHT22;64625;50.882;4.376;2023-02-04T01:18:38;10.50;99.90
37984;DHT22;64625;50.882;4.376;2023-02-04T01:21:04;10.60;99.90
37984;DHT22;64625;50.882;4.376;2023-02-04T01:23:30;10.60;99.90
37984;DHT22;64625;50.882;4.376;2023-02-04T01:25:55;10.50;99.90
37984;DHT22;64625;50.882;4.376;2023-02-04T01:28:21;10.50;99.90
37984;DHT22;64625;50.882;4.376;2023-02-04T01:30:47;10.50;99.90
37984;DHT22;64625;50.882;4.376;2023-02-04T01:33:13;10.50;99.90
37984;DHT22;64625;50.882;4.376;2023-02-04T01:35:39;10.50;99.90
37984;DHT22;64625;50.882;4.376;2023-02-04T01:38:04;10.50;99.90
37984;DHT22;64625;50.882;4.376;2023-02-04T01:40:33;10.50;99.90
37984;DHT22;64625;50.882;4.376;2023-02-04T01:42:59;10.50;99.90
37984;DHT22;64625;50.882;4.376;2023-02-04T01:45:25;10.50;99.90
37984;DHT22;64625;50.882;4.376;2023-02-04T01:47:52;10.50;99.90
37984;DHT22;64625;50.882;4.376;2023-02-04T01:50:21;10.50;99.90
37984;DHT22;64625;50.882;4.376;2023-02-04T01:52:48;10.40;99.90
37984;DHT22;64625;50.882;4.376;2023-02-04T01:55:25;10.50;99.90
37984;DHT22;64625;50.882;4.376;2023-02-04T01:57:51;10.50;99.90
37984;DHT22;64625;50.882;4.376;2023-02-04T02:00:30;10.50;99.90
37984;DHT22;64625;50.882;4.376;2023-02-04T02:02:57;10.40;99.90
37984;DHT22;64625;50.882;4.376;2023-02-04T02:05:47;10.50;99.90
37984;DHT22;64625;50.882;4.376;2023-02-04T02:08:12;10.40;99.90
37984;DHT22;64625;50.882;4.376;2023-02-04T02:10:40;10.40;99.90
37984;DHT22;64625;50.882;4.376;2023-02-04T02:13:09;10.40;99.90
37984;DHT22;64625;50.882;4.376;2023-02-04T02:15:36;10.40;99.90
37984;DHT22;64625;50.882;4.376;2023-02-04T02:18:01;10.40;99.90
37984;DHT22;64625;50.882;4.376;2023-02-04T02:20:28;10.40;99.90
37984;DHT22;64625;50.882;4.376;2023-02-04T02:25:39;10.40;99.90
37984;DHT22;64625;50.882;4.376;2023-02-04T02:28:11;10.40;99.90
37984;DHT22;64625;50.882;4.376;2023-02-04T02:30:39;10.40;99.90
37984;DHT22;64625;50.882;4.376;2023-02-04T02:33:05;10.40;99.90
37984;DHT22;64625;50.882;4.376;2023-02-04T02:35:32;10.40;99.90
37984;DHT22;64625;50.882;4.376;2023-02-04T02:37:58;10.40;99.90
37984;DHT22;64625;50.882;4.376;2023-02-04T02:40:24;10.40;99.90
37984;DHT22;64625;50.882;4.376;2023-02-04T02:42:52;10.40;99.90
37984;DHT22;64625;50.882;4.376;2023-02-04T02:45:25;10.40;99.90
37984;DHT22;64625;50.882;4.376;2023-02-04T02:47:52;10.40;99.90
37984;DHT22;64625;50.882;4.376;2023-02-04T02:50:21;10.40;99.90
37984;DHT22;64625;50.882;4.376;2023-02-04T02:52:47;10.40;99.90
37984;DHT22;64625;50.882;4.376;2023-02-04T02:55:18;10.40;99.90
37984;DHT22;64625;50.882;4.376;2023-02-04T02:57:45;10.40;99.90
37984;DHT22;64625;50.882;4.376;2023-02-04T03:00:22;10.30;99.90
37984;DHT22;64625;50.882;4.376;2023-02-04T03:03:14;10.30;99.90
37984;DHT22;64625;50.882;4.376;2023-02-04T03:05:44;10.30;99.90
37984;DHT22;64625;50.882;4.376;2023-02-04T03:08:12;10.30;99.90
37984;DHT22;64625;50.882;4.376;2023-02-04T03:10:38;10.30;99.90
37984;DHT22;64625;50.882;4.376;2023-02-04T03:13:05;10.30;99.90
37984;DHT22;64625;50.882;4.376;2023-02-04T03:15:31;10.30;99.90
37984;DHT22;64625;50.882;4.376;2023-02-04T03:17:57;10.30;99.90
37984;DHT22;64625;50.882;4.376;2023-02-04T03:20:24;10.30;99.90
37984;DHT22;64625;50.882;4.376;2023-02-04T03:22:52;10.30;99.90
37984;DHT22;64625;50.882;4.376;2023-02-04T03:25:18;10.30;99.90
37984;DHT22;64625;50.882;4.376;2023-02-04T03:27:45;10.30;99.90
37984;DHT22;64625;50.882;4.376;2023-02-04T03:30:11;10.30;99.90
37984;DHT22;64625;50.882;4.376;2023-02-04T03:32:37;10.30;99.90
37984;DHT22;64625;50.882;4.376;2023-02-04T03:35:04;10.20;99.90
37984;DHT22;64625;50.882;4.376;2023-02-04T03:37:30;10.20;99.90
37984;DHT22;64625;50.882;4.376;2023-02-04T03:39:55;10.10;99.90
37984;DHT22;64625;50.882;4.376;2023-02-04T03:42:21;10.10;99.90
37984;DHT22;64625;50.882;4.376;2023-02-04T03:44:47;10.00;99.90
37984;DHT22;64625;50.882;4.376;2023-02-04T03:47:12;10.00;99.90
37984;DHT22;64625;50.882;4.376;2023-02-04T03:49:38;9.90;99.90
37984;DHT22;64625;50.882;4.376;2023-02-04T03:52:04;9.90;99.90
37984;DHT22;64625;50.882;4.376;2023-02-04T03:54:30;9.90;99.90
37984;DHT22;64625;50.882;4.376;2023-02-04T03:56:56;9.80;99.90
37984;DHT22;64625;50.882;4.376;2023-02-04T03:59:21;9.80;99.90
37984;DHT22;64625;50.882;4.376;2023-02-04T04:01:47;9.80;99.90
37984;DHT22;64625;50.882;4.376;2023-02-04T04:04:13;9.80;99.90
37984;DHT22;64625;50.882;4.376;2023-02-04T04:06:39;9.80;99.90
37984;DHT22;64625;50.882;4.376;2023-02-04T04:09:05;9.70;99.90
37984;DHT22;64625;50.882;4.376;2023-02-04T04:11:31;9.70;99.90
37984;DHT22;64625;50.882;4.376;2023-02-04T04:13:58;9.70;99.90
37984;DHT22;64625;50.882;4.376;2023-02-04T04:16:26;9.70;99.90
37984;DHT22;64625;50.882;4.376;2023-02-04T04:18:51;9.70;99.90
37984;DHT22;64625;50.882;4.376;2023-02-04T04:21:17;9.70;99.90
37984;DHT22;64625;50.882;4.376;2023-02-04T04:23:43;9.70;99.90
37984;DHT22;64625;50.882;4.376;2023-02-04T04:26:09;9.70;99.90
37984;DHT22;64625;50.882;4.376;2023-02-04T04:28:34;9.70;99.90
37984;DHT22;64625;50.882;4.376;2023-02-04T04:31:00;9.70;99.90
37984;DHT22;64625;50.882;4.376;2023-02-04T04:33:26;9.60;99.90
37984;DHT22;64625;50.882;4.376;2023-02-04T04:35:52;9.60;99.90
37984;DHT22;64625;50.882;4.376;2023-02-04T04:38:17;9.60;99.90
37984;DHT22;64625;50.882;4.376;2023-02-04T04:40:43;9.60;99.90
37984;DHT22;64625;50.882;4.376;2023-02-04T04:43:09;9.60;99.90
37984;DHT22;64625;50.882;4.376;2023-02-04T04:45:35;9.60;99.90
37984;DHT22;64625;50.882;4.376;2023-02-04T04:48:00;9.60;99.90
37984;DHT22;64625;50.882;4.376;2023-02-04T04:50:26;9.60;99.90
37984;DHT22;64625;50.882;4.376;2023-02-04T04:52:52;9.60;99.90
37984;DHT22;64625;50.882;4.376;2023-02-04T04:55:18;9.60;99.90
37984;DHT22;64625;50.882;4.376;2023-02-04T04:57:43;9.60;99.90
37984;DHT22;64625;50.882;4.376;2023-02-04T05:00:14;9.60;99.90
37984;DHT22;64625;50.882;4.376;2023-02-04T05:02:40;9.60;99.90
37984;DHT22;64625;50.882;4.376;2023-02-04T05:05:06;9.60;99.90
37984;DHT22;64625;50.882;4.376;2023-02-04T05:07:32;9.60;99.90
37984;DHT22;64625;50.882;4.376;2023-02-04T05:09:58;9.60;99.90
37984;DHT22;64625;50.882;4.376;2023-02-04T05:12:23;9.60;99.90
37984;DHT22;64625;50.882;4.376;2023-02-04T05:14:49;9.60;99.90
37984;DHT22;64625;50.882;4.376;2023-02-04T05:17:15;9.60;99.90
37984;DHT22;64625;50.882;4.376;2023-02-04T05:19:41;9.60;99.90
37984;DHT22;64625;50.882;4.376;2023-02-04T05:22:06;9.60;99.90
37984;DHT22;64625;50.882;4.376;2023-02-04T05:24:32;9.60;99.90
37984;DHT22;64625;50.882;4.376;2023-02-04T05:26:58;9.60;99.90
37984;DHT22;64625;50.882;4.376;2023-02-04T05:29:24;9.60;99.90
37984;DHT22;64625;50.882;4.376;2023-02-04T05:31:50;9.60;99.90
37984;DHT22;64625;50.882;4.376;2023-02-04T05:34:15;9.60;99.90
37984;DHT22;64625;50.882;4.376;2023-02-04T05:36:41;9.60;99.90
37984;DHT22;64625;50.882;4.376;2023-02-04T05:39:07;9.60;99.90
37984;DHT22;64625;50.882;4.376;2023-02-04T05:41:33;9.60;99.90
37984;DHT22;64625;50.882;4.376;2023-02-04T05:43:59;9.60;99.90
37984;DHT22;64625;50.882;4.376;2023-02-04T05:46:25;9.60;99.90
37984;DHT22;64625;50.882;4.376;2023-02-04T05:48:50;9.60;99.90
37984;DHT22;64625;50.882;4.376;2023-02-04T05:51:16;9.60;99.90
37984;DHT22;64625;50.882;4.376;2023-02-04T05:53:42;9.60;99.90
37984;DHT22;64625;50.882;4.376;2023-02-04T05:56:08;9.50;99.90
37984;DHT22;64625;50.882;4.376;2023-02-04T05:58:33;9.60;99.90
37984;DHT22;64625;50.882;4.376;2023-02-04T06:01:00;9.60;99.90
37984;DHT22;64625;50.882;4.376;2023-02-04T06:03:27;9.60;99.90
37984;DHT22;64625;50.882;4.376;2023-02-04T06:05:53;9.60;99.90
37984;DHT22;64625;50.882;4.376;2023-02-04T06:08:19;9.60;99.90
37984;DHT22;64625;50.882;4.376;2023-02-04T06:10:45;9.60;99.90
37984;DHT22;64625;50.882;4.376;2023-02-04T06:13:13;9.60;99.90
37984;DHT22;64625;50.882;4.376;2023-02-04T06:15:38;9.60;99.90
37984;DHT22;64625;50.882;4.376;2023-02-04T06:18:04;9.60;99.90
37984;DHT22;64625;50.882;4.376;2023-02-04T06:20:31;9.60;99.90
37984;DHT22;64625;50.882;4.376;2023-02-04T06:22:56;9.60;99.90
37984;DHT22;64625;50.882;4.376;2023-02-04T06:25:25;9.60;99.90
37984;DHT22;64625;50.882;4.376;2023-02-04T06:27:51;9.60;99.90
37984;DHT22;64625;50.882;4.376;2023-02-04T06:30:17;9.60;99.90
37984;DHT22;64625;50.882;4.376;2023-02-04T06:32:43;9.60;99.90
37984;DHT22;64625;50.882;4.376;2023-02-04T06:35:09;9.60;99.90
37984;DHT22;64625;50.882;4.376;2023-02-04T06:37:35;9.60;99.90
37984;DHT22;64625;50.882;4.376;2023-02-04T06:40:01;9.60;99.90
37984;DHT22;64625;50.882;4.376;2023-02-04T06:42:27;9.60;99.90
37984;DHT22;64625;50.882;4.376;2023-02-04T06:44:53;9.60;99.90
37984;DHT22;64625;50.882;4.376;2023-02-04T06:47:19;9.60;99.90
37984;DHT22;64625;50.882;4.376;2023-02-04T06:49:44;9.60;99.90
37984;DHT22;64625;50.882;4.376;2023-02-04T06:52:10;9.60;99.90
37984;DHT22;64625;50.882;4.376;2023-02-04T06:54:36;9.60;99.90
37984;DHT22;64625;50.882;4.376;2023-02-04T06:57:03;9.60;99.90
37984;DHT22;64625;50.882;4.376;2023-02-04T06:59:36;9.60;99.90
37984;DHT22;64625;50.882;4.376;2023-02-04T07:02:05;9.60;99.90
37984;DHT22;64625;50.882;4.376;2023-02-04T07:04:31;9.60;99.90
37984;DHT22;64625;50.882;4.376;2023-02-04T07:06:57;9.60;99.90
37984;DHT22;64625;50.882;4.376;2023-02-04T07:09:23;9.50;99.90
37984;DHT22;64625;50.882;4.376;2023-02-04T07:11:49;9.50;99.90
37984;DHT22;64625;50.882;4.376;2023-02-04T07:14:15;9.50;99.90
37984;DHT22;64625;50.882;4.376;2023-02-04T07:16:41;9.60;99.90
37984;DHT22;64625;50.882;4.376;2023-02-04T07:19:06;9.60;99.90
37984;DHT22;64625;50.882;4.376;2023-02-04T07:21:32;9.60;99.90
37984;DHT22;64625;50.882;4.376;2023-02-04T07:23:58;9.50;99.90
37984;DHT22;64625;50.882;4.376;2023-02-04T07:26:24;9.60;99.90
37984;DHT22;64625;50.882;4.376;2023-02-04T07:28:50;9.50;99.90
37984;DHT22;64625;50.882;4.376;2023-02-04T07:31:16;9.50;99.90
37984;DHT22;64625;50.882;4.376;2023-02-04T07:33:42;9.50;99.90
37984;DHT22;64625;50.882;4.376;2023-02-04T07:36:08;9.50;99.90
37984;DHT22;64625;50.882;4.376;2023-02-04T07:38:34;9.50;99.90
37984;DHT22;64625;50.882;4.376;2023-02-04T07:40:59;9.50;99.90
37984;DHT22;64625;50.882;4.376;2023-02-04T07:43:25;9.60;99.90
37984;DHT22;64625;50.882;4.376;2023-02-04T07:45:51;9.60;99.90
37984;DHT22;64625;50.882;4.376;2023-02-04T07:48:17;9.60;99.90
37984;DHT22;64625;50.882;4.376;2023-02-04T07:50:42;9.60;99.90
37984;DHT22;64625;50.882;4.376;2023-02-04T07:53:08;9.60;99.90
37984;DHT22;64625;50.882;4.376;2023-02-04T07:55:34;9.60;99.90
37984;DHT22;64625;50.882;4.376;2023-02-04T07:58:03;9.60;99.90
37984;DHT22;64625;50.882;4.376;2023-02-04T08:00:29;9.60;99.90
37984;DHT22;64625;50.882;4.376;2023-02-04T08:02:55;9.60;99.90
37984;DHT22;64625;50.882;4.376;2023-02-04T08:05:21;9.60;99.90
37984;DHT22;64625;50.882;4.376;2023-02-04T08:07:47;9.60;99.90
37984;DHT22;64625;50.882;4.376;2023-02-04T08:10:13;9.60;99.90
37984;DHT22;64625;50.882;4.376;2023-02-04T08:12:39;9.60;99.90
37984;DHT22;64625;50.882;4.376;2023-02-04T08:15:05;9.60;99.90
37984;DHT22;64625;50.882;4.376;2023-02-04T08:17:33;9.60;99.90
37984;DHT22;64625;50.882;4.376;2023-02-04T08:19:59;9.60;99.90
37984;DHT22;64625;50.882;4.376;2023-02-04T08:22:24;9.60;99.90
37984;DHT22;64625;50.882;4.376;2023-02-04T08:24:50;9.60;99.90
37984;DHT22;64625;50.882;4.376;2023-02-04T08:27:16;9.60;99.90
37984;DHT22;64625;50.882;4.376;2023-02-04T08:29:42;9.60;99.90
37984;DHT22;64625;50.882;4.376;2023-02-04T08:32:08;9.70;99.90
37984;DHT22;64625;50.882;4.376;2023-02-04T08:34:38;9.60;99.90
37984;DHT22;64625;50.882;4.376;2023-02-04T08:37:04;9.70;99.90
37984;DHT22;64625;50.882;4.376;2023-02-04T08:39:31;9.70;99.90
37984;DHT22;64625;50.882;4.376;2023-02-04T08:41:57;9.60;99.90
37984;DHT22;64625;50.882;4.376;2023-02-04T08:44:23;9.70;99.90
37984;DHT22;64625;50.882;4.376;2023-02-04T08:46:49;9.70;99.90
37984;DHT22;64625;50.882;4.376;2023-02-04T08:49:15;9.70;99.90
37984;DHT22;64625;50.882;4.376;2023-02-04T08:51:41;9.70;99.90
37984;DHT22;64625;50.882;4.376;2023-02-04T08:54:07;9.70;99.90
37984;DHT22;64625;50.882;4.376;2023-02-04T08:56:32;9.70;99.90
37984;DHT22;64625;50.882;4.376;2023-02-04T08:58:59;9.70;99.90
37984;DHT22;64625;50.882;4.376;2023-02-04T09:01:25;9.70;99.90
37984;DHT22;64625;50.882;4.376;2023-02-04T09:03:51;9.70;99.90
37984;DHT22;64625;50.882;4.376;2023-02-04T09:06:17;9.80;99.90
37984;DHT22;64625;50.882;4.376;2023-02-04T09:08:43;9.80;99.90
37984;DHT22;64625;50.882;4.376;2023-02-04T09:11:08;9.80;99.90
37984;DHT22;64625;50.882;4.376;2023-02-04T09:13:37;9.80;99.90
37984;DHT22;64625;50.882;4.376;2023-02-04T09:16:04;9.80;99.90
37984;DHT22;64625;50.882;4.376;2023-02-04T09:18:30;9.80;99.90
37984;DHT22;64625;50.882;4.376;2023-02-04T09:20:57;9.80;99.90
37984;DHT22;64625;50.882;4.376;2023-02-04T09:23:24;9.90;99.90
37984;DHT22;64625;50.882;4.376;2023-02-04T09:25:49;9.90;99.90
37984;DHT22;64625;50.882;4.376;2023-02-04T09:28:21;9.90;99.90
37984;DHT22;64625;50.882;4.376;2023-02-04T09:30:46;9.90;99.90
37984;DHT22;64625;50.882;4.376;2023-02-04T09:33:14;9.90;99.90
37984;DHT22;64625;50.882;4.376;2023-02-04T09:35:41;9.90;99.90
37984;DHT22;64625;50.882;4.376;2023-02-04T09:38:07;10.00;99.90
37984;DHT22;64625;50.882;4.376;2023-02-04T09:40:37;9.90;99.90
37984;DHT22;64625;50.882;4.376;2023-02-04T09:43:05;10.00;99.90
37984;DHT22;64625;50.882;4.376;2023-02-04T09:45:35;10.00;99.90
37984;DHT22;64625;50.882;4.376;2023-02-04T09:48:05;10.00;99.90
37984;DHT22;64625;50.882;4.376;2023-02-04T09:50:31;10.00;99.90
37984;DHT22;64625;50.882;4.376;2023-02-04T09:53:00;10.00;99.90
37984;DHT22;64625;50.882;4.376;2023-02-04T09:55:46;10.00;99.90
37984;DHT22;64625;50.882;4.376;2023-02-04T09:58:17;10.00;99.90
37984;DHT22;64625;50.882;4.376;2023-02-04T10:00:44;10.10;99.90
37984;DHT22;64625;50.882;4.376;2023-02-04T10:03:15;10.10;99.90
37984;DHT22;64625;50.882;4.376;2023-02-04T10:05:41;10.10;99.90
37984;DHT22;64625;50.882;4.376;2023-02-04T10:08:14;10.10;99.90
37984;DHT22;64625;50.882;4.376;2023-02-04T10:10:41;10.10;99.90
37984;DHT22;64625;50.882;4.376;2023-02-04T10:13:17;10.10;99.90
37984;DHT22;64625;50.882;4.376;2023-02-04T10:15:44;10.20;99.90
37984;DHT22;64625;50.882;4.376;2023-02-04T10:18:16;10.10;99.90
37984;DHT22;64625;50.882;4.376;2023-02-04T10:20:44;10.10;99.90
37984;DHT22;64625;50.882;4.376;2023-02-04T10:23:10;10.10;99.90
37984;DHT22;64625;50.882;4.376;2023-02-04T10:25:36;10.10;99.90
37984;DHT22;64625;50.882;4.376;2023-02-04T10:28:02;10.10;99.90
37984;DHT22;64625;50.882;4.376;2023-02-04T10:30:30;10.10;99.90
37984;DHT22;64625;50.882;4.376;2023-02-04T10:32:59;10.10;99.90
37984;DHT22;64625;50.882;4.376;2023-02-04T10:35:45;10.10;99.90
37984;DHT22;64625;50.882;4.376;2023-02-04T10:38:11;10.10;99.90
37984;DHT22;64625;50.882;4.376;2023-02-04T10:40:37;10.20;99.90
37984;DHT22;64625;50.882;4.376;2023-02-04T10:43:10;10.20;99.90
37984;DHT22;64625;50.882;4.376;2023-02-04T10:45:38;10.20;99.90
37984;DHT22;64625;50.882;4.376;2023-02-04T10:48:14;10.20;99.90
37984;DHT22;64625;50.882;4.376;2023-02-04T10:50:40;10.20;99.90
37984;DHT22;64625;50.882;4.376;2023-02-04T10:53:09;10.20;99.90
37984;DHT22;64625;50.882;4.376;2023-02-04T10:55:55;10.20;99.90
37984;DHT22;64625;50.882;4.376;2023-02-04T10:58:31;10.20;99.90
37984;DHT22;64625;50.882;4.376;2023-02-04T11:00:57;10.30;99.90
37984;DHT22;64625;50.882;4.376;2023-02-04T11:03:29;10.30;99.90
37984;DHT22;64625;50.882;4.376;2023-02-04T11:05:57;10.30;99.90
37984;DHT22;64625;50.882;4.376;2023-02-04T11:11:03;10.30;99.90
37984;DHT22;64625;50.882;4.376;2023-02-04T11:13:41;10.30;99.90
37984;DHT22;64625;50.882;4.376;2023-02-04T11:19:09;10.30;99.90
37984;DHT22;64625;50.882;4.376;2023-02-04T11:26:46;10.40;99.90
37984;DHT22;64625;50.882;4.376;2023-02-04T11:31:57;10.40;99.90
37984;DHT22;64625;50.882;4.376;2023-02-04T11:34:28;10.50;99.90
37984;DHT22;64625;50.882;4.376;2023-02-04T11:39:37;10.50;99.90
37984;DHT22;64625;50.882;4.376;2023-02-04T11:42:05;10.60;99.90
37984;DHT22;64625;50.882;4.376;2023-02-04T11:44:32;10.60;99.90
37984;DHT22;64625;50.882;4.376;2023-02-04T11:47:07;10.70;99.90
37984;DHT22;64625;50.882;4.376;2023-02-04T11:49:35;10.70;99.90
37984;DHT22;64625;50.882;4.376;2023-02-04T11:52:12;10.70;99.90
37984;DHT22;64625;50.882;4.376;2023-02-04T11:54:39;10.80;99.90
37984;DHT22;64625;50.882;4.376;2023-02-04T11:57:05;10.80;99.90
37984;DHT22;64625;50.882;4.376;2023-02-04T11:59:31;10.80;99.90
37984;DHT22;64625;50.882;4.376;2023-02-04T12:02:16;10.90;99.90
37984;DHT22;64625;50.882;4.376;2023-02-04T12:04:56;10.90;99.90
37984;DHT22;64625;50.882;4.376;2023-02-04T12:07:27;10.90;99.90
37984;DHT22;64625;50.882;4.376;2023-02-04T12:09:55;10.90;99.90
37984;DHT22;64625;50.882;4.376;2023-02-04T12:12:27;10.90;99.90
37984;DHT22;64625;50.882;4.376;2023-02-04T12:15:08;10.90;99.90
37984;DHT22;64625;50.882;4.376;2023-02-04T12:17:38;11.00;99.90
37984;DHT22;64625;50.882;4.376;2023-02-04T12:20:04;11.00;99.90
37984;DHT22;64625;50.882;4.376;2023-02-04T12:22:30;11.00;99.90
37984;DHT22;64625;50.882;4.376;2023-02-04T12:24:55;11.00;99.90
37984;DHT22;64625;50.882;4.376;2023-02-04T12:27:21;11.10;99.90
37984;DHT22;64625;50.882;4.376;2023-02-04T12:29:47;11.00;99.90
37984;DHT22;64625;50.882;4.376;2023-02-04T12:32:13;11.10;99.90
37984;DHT22;64625;50.882;4.376;2023-02-04T12:34:42;11.00;99.90
37984;DHT22;64625;50.882;4.376;2023-02-04T12:37:08;11.10;99.90
37984;DHT22;64625;50.882;4.376;2023-02-04T12:39:34;11.10;99.90
37984;DHT22;64625;50.882;4.376;2023-02-04T12:41:59;11.10;99.90
37984;DHT22;64625;50.882;4.376;2023-02-04T12:44:25;11.10;99.90
37984;DHT22;64625;50.882;4.376;2023-02-04T12:46:52;11.10;99.90
37984;DHT22;64625;50.882;4.376;2023-02-04T12:49:19;11.10;99.90
37984;DHT22;64625;50.882;4.376;2023-02-04T12:51:45;11.10;99.90
37984;DHT22;64625;50.882;4.376;2023-02-04T12:54:11;11.10;99.90
37984;DHT22;64625;50.882;4.376;2023-02-04T12:56:37;11.10;99.90
37984;DHT22;64625;50.882;4.376;2023-02-04T12:59:05;11.10;99.90
37984;DHT22;64625;50.882;4.376;2023-02-04T13:01:31;11.10;99.90
37984;DHT22;64625;50.882;4.376;2023-02-04T13:03:58;11.10;99.90
37984;DHT22;64625;50.882;4.376;2023-02-04T13:06:24;11.10;99.90
37984;DHT22;64625;50.882;4.376;2023-02-04T13:08:53;11.20;99.90
37984;DHT22;64625;50.882;4.376;2023-02-04T13:11:19;11.20;99.90
37984;DHT22;64625;50.882;4.376;2023-02-04T13:13:44;11.20;99.90
37984;DHT22;64625;50.882;4.376;2023-02-04T13:16:10;11.20;99.90
37984;DHT22;64625;50.882;4.376;2023-02-04T13:18:37;11.20;99.90
37984;DHT22;64625;50.882;4.376;2023-02-04T13:21:04;11.20;99.90
37984;DHT22;64625;50.882;4.376;2023-02-04T13:23:29;11.20;99.90
37984;DHT22;64625;50.882;4.376;2023-02-04T13:25:55;11.20;99.90
37984;DHT22;64625;50.882;4.376;2023-02-04T13:28:21;11.30;99.90
37984;DHT22;64625;50.882;4.376;2023-02-04T13:30:47;11.30;99.90
37984;DHT22;64625;50.882;4.376;2023-02-04T13:33:13;11.30;99.90
37984;DHT22;64625;50.882;4.376;2023-02-04T13:35:38;11.30;99.90
37984;DHT22;64625;50.882;4.376;2023-02-04T13:38:05;11.30;99.90
37984;DHT22;64625;50.882;4.376;2023-02-04T13:40:31;11.40;99.90
37984;DHT22;64625;50.882;4.376;2023-02-04T13:42:57;11.40;99.90
37984;DHT22;64625;50.882;4.376;2023-02-04T13:45:23;11.40;99.90
37984;DHT22;64625;50.882;4.376;2023-02-04T13:47:49;11.40;99.90
37984;DHT22;64625;50.882;4.376;2023-02-04T13:50:17;11.40;99.90
37984;DHT22;64625;50.882;4.376;2023-02-04T13:52:43;11.40;99.90
37984;DHT22;64625;50.882;4.376;2023-02-04T13:55:09;11.40;99.90
37984;DHT22;64625;50.882;4.376;2023-02-04T13:57:35;11.40;99.90
37984;DHT22;64625;50.882;4.376;2023-02-04T14:00:06;11.40;99.90
37984;DHT22;64625;50.882;4.376;2023-02-04T14:02:33;11.40;99.90
37984;DHT22;64625;50.882;4.376;2023-02-04T14:04:59;11.40;99.90
37984;DHT22;64625;50.882;4.376;2023-02-04T14:07:26;11.50;99.90
37984;DHT22;64625;50.882;4.376;2023-02-04T14:09:52;11.40;99.90
37984;DHT22;64625;50.882;4.376;2023-02-04T14:12:18;11.50;99.90
37984;DHT22;64625;50.882;4.376;2023-02-04T14:14:44;11.50;99.90
37984;DHT22;64625;50.882;4.376;2023-02-04T14:17:09;11.50;99.90
37984;DHT22;64625;50.882;4.376;2023-02-04T14:19:35;11.50;99.90
37984;DHT22;64625;50.882;4.376;2023-02-04T14:22:01;11.50;99.90
37984;DHT22;64625;50.882;4.376;2023-02-04T14:24:27;11.50;99.90
37984;DHT22;64625;50.882;4.376;2023-02-04T14:26:53;11.40;99.90
37984;DHT22;64625;50.882;4.376;2023-02-04T14:29:21;11.50;99.90
37984;DHT22;64625;50.882;4.376;2023-02-04T14:31:47;11.40;99.90
37984;DHT22;64625;50.882;4.376;2023-02-04T14:34:12;11.40;99.90
37984;DHT22;64625;50.882;4.376;2023-02-04T14:36:39;11.50;99.90
37984;DHT22;64625;50.882;4.376;2023-02-04T14:39:04;11.50;99.90
37984;DHT22;64625;50.882;4.376;2023-02-04T14:41:30;11.40;99.90
37984;DHT22;64625;50.882;4.376;2023-02-04T14:43:57;11.50;99.90
37984;DHT22;64625;50.882;4.376;2023-02-04T14:46:22;11.50;99.90
37984;DHT22;64625;50.882;4.376;2023-02-04T14:48:48;11.50;99.90
37984;DHT22;64625;50.882;4.376;2023-02-04T14:51:17;11.50;99.90
37984;DHT22;64625;50.882;4.376;2023-02-04T14:53:44;11.50;99.90
37984;DHT22;64625;50.882;4.376;2023-02-04T14:56:11;11.50;99.90
37984;DHT22;64625;50.882;4.376;2023-02-04T14:58:37;11.50;99.90
37984;DHT22;64625;50.882;4.376;2023-02-04T15:01:03;11.50;99.90
37984;DHT22;64625;50.882;4.376;2023-02-04T15:03:29;11.50;99.90
37984;DHT22;64625;50.882;4.376;2023-02-04T15:05:55;11.60;99.90
37984;DHT22;64625;50.882;4.376;2023-02-04T15:08:21;11.50;99.90
37984;DHT22;64625;50.882;4.376;2023-02-04T15:10:47;11.60;99.90
37984;DHT22;64625;50.882;4.376;2023-02-04T15:13:13;11.50;99.90
37984;DHT22;64625;50.882;4.376;2023-02-04T15:15:38;11.60;99.90
37984;DHT22;64625;50.882;4.376;2023-02-04T15:18:04;11.50;99.90
37984;DHT22;64625;50.882;4.376;2023-02-04T15:20:30;11.60;99.90
37984;DHT22;64625;50.882;4.376;2023-02-04T15:22:56;11.60;99.90
37984;DHT22;64625;50.882;4.376;2023-02-04T15:25:23;11.50;99.90
37984;DHT22;64625;50.882;4.376;2023-02-04T15:27:48;11.60;99.90
37984;DHT22;64625;50.882;4.376;2023-02-04T15:30:15;11.50;99.90
37984;DHT22;64625;50.882;4.376;2023-02-04T15:32:41;11.50;99.90
37984;DHT22;64625;50.882;4.376;2023-02-04T15:35:07;11.50;99.90
37984;DHT22;64625;50.882;4.376;2023-02-04T15:37:34;11.50;99.90
37984;DHT22;64625;50.882;4.376;2023-02-04T15:40:00;11.50;99.90
37984;DHT22;64625;50.882;4.376;2023-02-04T15:42:26;11.50;99.90
37984;DHT22;64625;50.882;4.376;2023-02-04T15:44:52;11.50;99.90
37984;DHT22;64625;50.882;4.376;2023-02-04T15:47:18;11.40;99.90
37984;DHT22;64625;50.882;4.376;2023-02-04T15:49:44;11.40;99.90
37984;DHT22;64625;50.882;4.376;2023-02-04T15:52:10;11.40;99.90
37984;DHT22;64625;50.882;4.376;2023-02-04T15:54:36;11.40;99.90